Time;durP1;ratioP1;P1;durP2;ratioP2;P2;SDS_P1;SDS_P2;PMS_P1;PMS_P2;Temp;Humidity;BMP_temperature;BMP_pressure;BME280_temperature;BME280_humidity;BME280_pressure;Samples;Min_cycle;Max_cycle;Signal;HPM_P1;HPM_P2
2023/03/04 00:00:45;;;;;;;0.50;0.50;;;;;;;3.18;70.31;100171.75;5023220;28;20326;-67
2023/03/04 00:03:10;;;;;;;0.50;0.50;;;;;;;3.17;70.38;100181.16;5023484;28;20506;-67
2023/03/04 00:05:36;;;;;;;0.43;0.43;;;;;;;3.15;70.25;100180.25;5023641;28;20049;-66
2023/03/04 00:08:03;;;;;;;0.50;0.50;;;;;;;3.17;70.22;100185.41;5021121;28;20486;-67
2023/03/04 00:10:28;;;;;;;0.50;0.50;;;;;;;3.12;70.13;100187.88;5023005;28;20048;-67
2023/03/04 00:12:53;;;;;;;0.50;0.50;;;;;;;3.10;70.13;100189.56;5023559;28;20482;-68
2023/03/04 00:15:19;;;;;;;0.50;0.50;;;;;;;3.11;69.98;100188.72;5022518;28;20026;-69
2023/03/04 00:17:45;;;;;;;0.52;0.52;;;;;;;3.08;69.78;100191.25;5023314;28;20596;-67
2023/03/04 00:20:11;;;;;;;0.50;0.50;;;;;;;3.03;69.68;100190.28;5021888;28;20028;-67
2023/03/04 00:22:36;;;;;;;0.47;0.47;;;;;;;3.02;69.49;100202.22;5023522;28;20091;-67
2023/03/04 00:25:02;;;;;;;0.60;0.60;;;;;;;2.94;69.40;100201.25;5023696;28;20042;-67
2023/03/04 00:27:27;;;;;;;0.50;0.50;;;;;;;2.91;69.18;100209.72;5023479;28;20111;-67
2023/03/04 00:29:52;;;;;;;0.50;0.50;;;;;;;2.79;69.20;100194.97;5022763;28;20044;-63
2023/03/04 00:32:18;;;;;;;0.50;0.50;;;;;;;2.84;69.04;100207.88;5023065;28;20163;-62
2023/03/04 00:34:43;;;;;;;0.50;0.50;;;;;;;2.84;68.84;100201.03;5023235;28;20149;-63
2023/03/04 00:37:09;;;;;;;0.50;0.50;;;;;;;2.77;68.84;100200.88;5023347;28;20022;-63
2023/03/04 00:39:34;;;;;;;0.50;0.50;;;;;;;2.78;68.66;100212.88;5023223;28;20010;-64
2023/03/04 00:41:59;;;;;;;0.50;0.50;;;;;;;2.76;68.62;100219.69;5023049;28;20100;-63
2023/03/04 00:44:25;;;;;;;0.50;0.50;;;;;;;2.71;68.55;100222.13;5022935;28;20509;-63
2023/03/04 00:46:50;;;;;;;0.50;0.50;;;;;;;2.66;68.36;100209.22;5023527;28;20022;-63
2023/03/04 00:49:16;;;;;;;0.50;0.50;;;;;;;2.73;68.35;100220.47;5021914;28;20036;-63
2023/03/04 00:51:41;;;;;;;0.50;0.50;;;;;;;2.77;68.31;100221.38;5023151;28;20026;-62
2023/03/04 00:54:06;;;;;;;0.50;0.50;;;;;;;2.78;67.95;100218.00;5022492;28;20090;-62
2023/03/04 00:56:32;;;;;;;0.50;0.50;;;;;;;2.81;67.70;100223.22;5022756;28;20026;-62
2023/03/04 00:58:57;;;;;;;0.50;0.50;;;;;;;2.82;67.21;100214.66;5023061;28;20025;-62
2023/03/04 01:01:23;;;;;;;0.50;0.50;;;;;;;2.89;66.75;100221.63;5023301;28;20033;-63
2023/03/04 01:03:48;;;;;;;0.50;0.50;;;;;;;2.88;66.63;100224.16;5023302;28;20120;-62
2023/03/04 01:06:13;;;;;;;0.50;0.50;;;;;;;2.89;66.23;100229.34;5023457;28;20120;-62
2023/03/04 01:08:39;;;;;;;0.50;0.50;;;;;;;2.90;65.49;100236.22;5022616;28;20036;-62
2023/03/04 01:11:05;;;;;;;0.50;0.50;;;;;;;2.83;65.00;100227.53;5022380;28;20277;-61
2023/03/04 01:13:32;;;;;;;0.50;0.50;;;;;;;2.87;65.15;100237.84;5022516;28;20034;-62
2023/03/04 01:15:57;;;;;;;0.50;0.50;;;;;;;2.83;65.09;100237.78;5022453;28;20485;-63
2023/03/04 01:18:23;;;;;;;0.60;0.60;;;;;;;2.81;65.02;100241.16;5022382;28;20030;-63
2023/03/04 01:20:49;;;;;;;0.50;0.50;;;;;;;2.82;64.41;100224.91;5021387;28;20021;-63
2023/03/04 01:23:14;;;;;;;0.50;0.50;;;;;;;2.83;63.58;100240.34;5022770;28;20049;-63
2023/03/04 01:25:40;;;;;;;0.50;0.50;;;;;;;2.85;62.85;100230.13;5023342;28;20072;-63
2023/03/04 01:28:05;;;;;;;0.50;0.50;;;;;;;2.87;61.92;100233.59;5022971;28;20036;-63
2023/03/04 01:30:30;;;;;;;0.60;0.60;;;;;;;2.85;61.73;100248.06;5022086;28;20054;-63
2023/03/04 01:32:56;;;;;;;0.50;0.50;;;;;;;2.80;61.36;100244.53;5022031;28;20041;-63
2023/03/04 01:35:21;;;;;;;0.50;0.50;;;;;;;2.79;60.71;100236.00;5021623;28;20094;-62
2023/03/04 01:37:47;;;;;;;0.50;0.50;;;;;;;2.75;60.22;100247.00;5022018;28;20026;-63
2023/03/04 01:40:13;;;;;;;0.50;0.50;;;;;;;2.69;59.88;100242.63;5021828;28;20029;-63
2023/03/04 01:42:39;;;;;;;0.50;0.50;;;;;;;2.71;59.75;100248.66;5023234;28;20022;-62
2023/03/04 01:45:05;;;;;;;0.50;0.50;;;;;;;2.64;58.95;100235.66;5026878;28;20112;-63
2023/03/04 01:47:34;;;;;;;0.50;0.50;;;;;;;2.65;58.81;100247.66;5026421;28;20094;-62
2023/03/04 01:50:03;;;;;;;0.50;0.50;;;;;;;2.64;58.48;100257.03;5025964;28;20554;-62
2023/03/04 01:52:29;;;;;;;0.50;0.50;;;;;;;2.60;57.94;100250.13;5026138;28;20067;-61
2023/03/04 01:54:55;;;;;;;0.50;0.50;;;;;;;2.56;57.54;100263.69;5026160;28;20085;-62
2023/03/04 01:57:23;;;;;;;0.50;0.50;;;;;;;2.56;57.39;100261.13;5026261;28;20026;-61
2023/03/04 02:00:23;;;;;;;0.50;0.50;;;;;;;2.53;57.36;100266.16;5026128;28;20018;-62
2023/03/04 02:02:51;;;;;;;0.60;0.60;;;;;;;2.47;56.80;100269.47;5025488;28;20085;-62
2023/03/04 02:05:18;;;;;;;0.50;0.50;;;;;;;2.41;56.86;100280.44;5025269;28;20014;-62
2023/03/04 02:07:43;;;;;;;0.45;0.45;;;;;;;2.39;56.94;100281.25;5025148;28;20026;-62
2023/03/04 02:10:10;;;;;;;0.50;0.50;;;;;;;2.33;56.79;100281.97;5025574;28;20029;-62
2023/03/04 02:12:36;;;;;;;0.50;0.50;;;;;;;2.25;57.09;100279.25;5026092;28;20028;-62
2023/03/04 02:15:02;;;;;;;0.50;0.50;;;;;;;2.18;57.29;100278.22;5025881;28;20026;-62
2023/03/04 02:17:27;;;;;;;0.50;0.50;;;;;;;2.11;57.27;100281.44;5025952;28;20026;-62
2023/03/04 02:20:06;;;;;;;0.40;0.40;;;;;;;1.98;57.13;100278.59;5025750;28;20018;-63
2023/03/04 02:22:37;;;;;;;0.50;0.50;;;;;;;1.97;57.29;100291.34;5025807;28;20097;-62
2023/03/04 02:25:10;;;;;;;0.60;0.60;;;;;;;1.89;57.08;100291.16;5025561;28;20047;-63
2023/03/04 02:27:35;;;;;;;0.50;0.50;;;;;;;1.76;57.23;100277.19;5025520;28;20034;-67
2023/03/04 02:30:01;;;;;;;2.47;2.33;;;;;;;1.79;57.46;100295.16;5025478;28;20022;-62
2023/03/04 02:32:26;;;;;;;0.50;0.50;;;;;;;1.74;57.67;100291.66;5024316;28;20029;-62
2023/03/04 02:34:51;;;;;;;0.50;0.50;;;;;;;1.67;57.67;100287.19;5024976;28;20505;-62
2023/03/04 02:37:19;;;;;;;0.50;0.50;;;;;;;1.63;57.90;100283.66;5025464;28;20029;-62
2023/03/04 02:39:47;;;;;;;0.50;0.50;;;;;;;1.59;57.99;100287.84;5025469;28;20077;-62
2023/03/04 02:42:12;;;;;;;0.50;0.50;;;;;;;1.57;58.17;100292.06;5025605;28;20112;-62
2023/03/04 02:44:42;;;;;;;0.60;0.60;;;;;;;1.61;58.24;100285.34;5025737;28;20080;-63
2023/03/04 02:47:10;;;;;;;0.60;0.60;;;;;;;1.60;57.76;100298.94;5025711;28;20085;-63
2023/03/04 02:49:37;;;;;;;0.50;0.50;;;;;;;1.59;57.38;100295.53;5024253;28;20533;-62
2023/03/04 02:52:11;;;;;;;0.50;0.50;;;;;;;1.64;57.38;100305.91;5026055;28;20029;-63
2023/03/04 02:54:38;;;;;;;0.50;0.50;;;;;;;1.69;57.73;100300.91;5026148;28;20152;-62
2023/03/04 02:57:06;;;;;;;0.50;0.50;;;;;;;1.71;57.90;100302.66;5026168;28;20030;-63
2023/03/04 02:59:34;;;;;;;0.40;0.40;;;;;;;1.78;57.85;100297.69;5026114;28;20053;-63
2023/03/04 03:02:00;;;;;;;0.50;0.50;;;;;;;1.78;57.63;100302.81;5026285;28;20363;-63
2023/03/04 03:04:26;;;;;;;0.52;0.52;;;;;;;1.73;57.59;100301.00;5026195;28;20030;-63
2023/03/04 03:06:52;;;;;;;0.50;0.50;;;;;;;1.77;57.42;100303.66;5026480;28;20049;-63
2023/03/04 03:09:19;;;;;;;0.50;0.50;;;;;;;1.78;57.47;100310.50;5024982;28;20025;-63
2023/03/04 03:11:44;;;;;;;0.50;0.50;;;;;;;1.72;57.19;100314.66;5025430;28;20129;-64
2023/03/04 03:14:10;;;;;;;0.50;0.50;;;;;;;1.72;57.11;100318.91;5025199;28;20030;-63
2023/03/04 03:16:35;;;;;;;0.50;0.50;;;;;;;1.69;56.36;100318.81;5024486;28;20088;-62
2023/03/04 03:19:01;;;;;;;0.50;0.50;;;;;;;1.62;56.22;100317.78;5024567;28;20520;-63
2023/03/04 03:21:27;;;;;;;0.50;0.50;;;;;;;1.54;55.56;100325.25;5025027;28;20029;-63
2023/03/04 03:23:52;;;;;;;0.60;0.60;;;;;;;1.49;55.25;100326.81;5025502;28;20036;-63
2023/03/04 03:26:18;;;;;;;0.50;0.50;;;;;;;1.46;54.89;100322.47;5024645;28;20051;-63
2023/03/04 03:28:43;;;;;;;0.50;0.50;;;;;;;1.38;54.59;100329.06;5022749;28;20049;-64
2023/03/04 03:31:09;;;;;;;0.50;0.50;;;;;;;1.30;53.93;100331.41;5025733;28;20036;-64
2023/03/04 03:33:35;;;;;;;0.40;0.40;;;;;;;1.29;53.42;100331.38;5026349;28;20108;-63
2023/03/04 03:36:00;;;;;;;0.50;0.50;;;;;;;1.24;52.80;100331.25;5026305;28;20028;-63
2023/03/04 03:38:26;;;;;;;0.50;0.50;;;;;;;1.22;52.21;100327.75;5026026;28;20032;-63
2023/03/04 03:40:52;;;;;;;0.52;0.52;;;;;;;1.20;52.13;100340.50;5024582;28;20017;-63
2023/03/04 03:43:18;;;;;;;0.50;0.50;;;;;;;1.22;51.09;100340.56;5026000;28;20386;-64
2023/03/04 03:45:43;;;;;;;0.50;0.50;;;;;;;1.22;50.48;100343.09;5025980;28;20030;-63
2023/03/04 03:48:09;;;;;;;0.50;0.50;;;;;;;1.21;50.23;100349.94;5025889;28;20029;-63
2023/03/04 03:50:34;;;;;;;0.50;0.50;;;;;;;1.21;50.01;100338.84;5025563;28;20111;-63
2023/03/04 03:53:00;;;;;;;0.50;0.50;;;;;;;1.16;50.34;100343.81;5025603;28;20065;-63
2023/03/04 03:55:25;;;;;;;0.50;0.50;;;;;;;1.09;50.30;100335.09;5023367;28;20069;-63
2023/03/04 03:57:51;;;;;;;0.50;0.50;;;;;;;1.07;50.25;100351.22;5024289;28;20322;-62
2023/03/04 04:00:16;;;;;;;0.50;0.50;;;;;;;1.05;49.93;100356.28;5023757;28;20033;-62
2023/03/04 04:02:42;;;;;;;0.52;0.52;;;;;;;0.98;50.05;100346.69;5023971;28;20085;-63
2023/03/04 04:05:08;;;;;;;0.55;0.55;;;;;;;0.93;49.83;100351.66;5023424;28;20090;-62
2023/03/04 04:07:34;;;;;;;0.50;0.50;;;;;;;0.90;49.69;100360.91;5023415;28;20254;-62
2023/03/04 04:10:00;;;;;;;0.60;0.60;;;;;;;0.86;49.54;100349.75;5022292;28;20029;-62
2023/03/04 04:12:25;;;;;;;0.50;0.50;;;;;;;0.83;49.19;100345.41;5023576;28;20036;-63
2023/03/04 04:14:51;;;;;;;1.67;1.58;;;;;;;0.74;48.89;100345.13;5023586;28;20030;-62
2023/03/04 04:17:16;;;;;;;0.50;0.50;;;;;;;0.78;48.94;100349.53;5023553;28;20113;-62
2023/03/04 04:19:42;;;;;;;0.52;0.52;;;;;;;0.72;49.22;100355.28;5023276;28;20026;-62
2023/03/04 04:22:13;;;;;;;0.60;0.60;;;;;;;0.70;49.27;100359.47;5023572;28;20060;-62
2023/03/04 04:24:38;;;;;;;0.70;0.70;;;;;;;0.72;48.68;100356.97;5023443;28;20053;-62
2023/03/04 04:27:04;;;;;;;0.50;0.50;;;;;;;0.69;48.70;100357.75;5023385;28;20123;-63
2023/03/04 04:29:30;;;;;;;0.50;0.50;;;;;;;0.68;48.17;100352.59;5023243;28;20033;-63
2023/03/04 04:31:55;;;;;;;0.50;0.50;;;;;;;0.68;47.83;100360.25;5023682;28;20025;-62
2023/03/04 04:34:21;;;;;;;0.50;0.50;;;;;;;0.60;47.96;100343.00;5023465;28;20022;-63
2023/03/04 04:36:48;;;;;;;0.50;0.50;;;;;;;0.64;47.53;100363.56;5023670;28;20248;-62
2023/03/04 04:39:13;;;;;;;0.45;0.45;;;;;;;0.66;46.97;100365.31;5023842;28;20017;-63
2023/03/04 04:41:40;;;;;;;0.50;0.50;;;;;;;0.68;46.70;100358.59;5022596;28;20064;-62
2023/03/04 04:44:07;;;;;;;0.60;0.60;;;;;;;0.67;46.82;100351.72;5023269;28;20017;-61
2023/03/04 04:46:33;;;;;;;0.50;0.50;;;;;;;0.68;46.55;100367.94;5023336;28;20034;-63
2023/03/04 04:48:59;;;;;;;0.50;0.50;;;;;;;0.64;46.81;100366.09;5022811;28;20533;-62
2023/03/04 04:51:25;;;;;;;0.50;0.50;;;;;;;0.59;46.60;100365.97;5023014;28;20057;-61
2023/03/04 04:53:50;;;;;;;0.47;0.47;;;;;;;0.62;46.56;100373.72;5022767;28;20073;-61
2023/03/04 04:56:18;;;;;;;0.50;0.50;;;;;;;0.60;46.11;100377.91;5022962;28;20038;-62
2023/03/04 04:58:44;;;;;;;0.50;0.50;;;;;;;0.55;46.31;100382.00;5022641;28;20025;-62
2023/03/04 05:01:10;;;;;;;0.50;0.50;;;;;;;0.42;46.31;100368.81;5022880;28;20353;-61
2023/03/04 05:03:36;;;;;;;0.50;0.50;;;;;;;0.48;46.47;100397.13;5023272;28;20018;-62
2023/03/04 05:06:03;;;;;;;0.57;0.57;;;;;;;0.48;46.65;100402.22;5022960;28;20064;-62
2023/03/04 05:08:29;;;;;;;0.70;0.70;;;;;;;0.43;46.82;100402.91;5022912;28;20056;-62
2023/03/04 05:10:54;;;;;;;0.50;0.50;;;;;;;0.42;46.80;100402.03;5022855;28;20022;-61
2023/03/04 05:13:20;;;;;;;0.50;0.50;;;;;;;0.39;46.80;100416.38;5022588;28;20033;-62
2023/03/04 05:15:46;;;;;;;0.50;0.50;;;;;;;0.35;46.50;100412.88;5022745;28;20044;-61
2023/03/04 05:18:11;;;;;;;0.50;0.50;;;;;;;0.34;45.88;100426.44;5022105;28;20238;-63
2023/03/04 05:20:36;;;;;;;0.50;0.50;;;;;;;0.33;45.67;100428.16;5022774;28;20160;-62
2023/03/04 05:23:02;;;;;;;0.50;0.50;;;;;;;0.36;45.54;100423.16;5022564;28;20034;-62
2023/03/04 05:25:28;;;;;;;0.60;0.60;;;;;;;0.33;45.63;100437.50;5022713;28;20029;-62
2023/03/04 05:27:53;;;;;;;0.50;0.50;;;;;;;0.22;45.63;100412.44;5022850;28;20029;-62
2023/03/04 05:30:19;;;;;;;0.50;0.50;;;;;;;0.26;45.36;100422.78;5022544;28;20037;-62
2023/03/04 05:32:44;;;;;;;0.50;0.50;;;;;;;0.29;45.51;100433.09;5021277;28;20022;-62
2023/03/04 05:35:10;;;;;;;0.50;0.50;;;;;;;0.27;45.56;100440.72;5022792;28;20033;-63
2023/03/04 05:37:35;;;;;;;0.60;0.60;;;;;;;0.27;45.55;100450.94;5022446;28;20060;-62
2023/03/04 05:40:01;;;;;;;0.60;0.60;;;;;;;0.22;45.57;100450.75;5022642;28;20029;-62
2023/03/04 05:42:26;;;;;;;0.50;0.50;;;;;;;0.20;45.79;100442.19;5022670;28;20029;-63
2023/03/04 05:44:52;;;;;;;0.60;0.60;;;;;;;0.21;45.39;100454.13;5022966;28;20030;-61
2023/03/04 05:47:17;;;;;;;0.60;0.60;;;;;;;0.20;45.47;100465.16;5023149;28;20033;-61
2023/03/04 05:49:43;;;;;;;0.47;0.47;;;;;;;0.21;45.17;100471.13;5021542;28;20018;-62
2023/03/04 05:52:09;;;;;;;0.50;0.50;;;;;;;0.16;45.07;100463.28;5022802;28;20317;-62
2023/03/04 05:54:35;;;;;;;0.50;0.50;;;;;;;0.13;45.36;100472.56;5022649;28;20046;-61
2023/03/04 05:57:01;;;;;;;0.50;0.50;;;;;;;0.13;45.48;100475.97;5022386;28;20033;-62
2023/03/04 05:59:27;;;;;;;0.50;0.50;;;;;;;0.09;45.78;100472.44;5022722;28;20022;-62
2023/03/04 06:01:52;;;;;;;0.50;0.50;;;;;;;0.08;45.66;100480.06;5022397;28;20530;-62
2023/03/04 06:04:18;;;;;;;0.60;0.60;;;;;;;0.06;45.68;100481.66;5022542;28;20033;-61
2023/03/04 06:06:45;;;;;;;0.60;0.60;;;;;;;0.03;45.62;100471.34;5022719;28;20029;-62
2023/03/04 06:09:11;;;;;;;0.50;0.50;;;;;;;0.06;45.57;100476.56;5023243;28;20025;-63
2023/03/04 06:11:36;;;;;;;0.60;0.60;;;;;;;0.08;45.54;100485.16;5022582;28;20025;-63
2023/03/04 06:14:02;;;;;;;0.50;0.50;;;;;;;0.08;45.50;100485.16;5023115;28;20030;-62
2023/03/04 06:16:27;;;;;;;0.50;0.50;;;;;;;0.07;45.43;100481.72;5023725;28;20018;-64
2023/03/04 06:18:53;;;;;;;0.50;0.50;;;;;;;0.03;45.41;100484.13;5022834;28;20022;-69
2023/03/04 06:21:18;;;;;;;0.50;0.50;;;;;;;0.07;45.01;100489.38;5023629;28;20018;-67
2023/03/04 06:23:44;;;;;;;0.60;0.60;;;;;;;0.08;45.09;100496.22;5022634;28;20026;-66
2023/03/04 06:26:14;;;;;;;0.50;0.50;;;;;;;0.10;45.05;100503.94;5020844;28;20378;-65
2023/03/04 06:28:40;;;;;;;0.50;0.50;;;;;;;0.10;45.39;100506.47;5022509;28;20042;-64
2023/03/04 06:31:05;;;;;;;0.50;0.50;;;;;;;0.07;45.43;100498.72;5025447;28;20018;-61
2023/03/04 06:33:31;;;;;;;0.50;0.50;;;;;;;0.12;45.07;100509.97;5025522;28;20022;-63
2023/03/04 06:35:56;;;;;;;0.52;0.52;;;;;;;0.14;44.90;100510.91;5025518;28;20089;-63
2023/03/04 06:38:24;;;;;;;0.50;0.50;;;;;;;0.17;45.23;100512.69;5025466;28;20026;-63
2023/03/04 06:40:49;;;;;;;0.50;0.50;;;;;;;0.19;45.19;100523.84;5025186;28;20018;-62
2023/03/04 06:43:14;;;;;;;0.60;0.60;;;;;;;0.29;45.24;100522.50;5025541;28;20044;-62
2023/03/04 06:45:40;;;;;;;0.60;0.60;;;;;;;0.46;45.45;100518.81;5024777;28;20061;-63
2023/03/04 06:48:05;;;;;;;0.50;0.50;;;;;;;0.93;45.74;100515.28;5025335;28;20117;-62
2023/03/04 06:50:31;;;;;;;0.60;0.60;;;;;;;1.54;44.96;100512.06;5024445;28;20246;-63
2023/03/04 06:52:56;;;;;;;0.50;0.50;;;;;;;2.08;44.56;100515.31;5022355;28;20247;-62
2023/03/04 06:55:22;;;;;;;0.50;0.50;;;;;;;2.59;42.80;100514.94;5024530;28;20033;-64
2023/03/04 06:57:47;;;;;;;0.50;0.50;;;;;;;2.89;41.98;100529.38;5024277;28;20270;-66
2023/03/04 07:00:13;;;;;;;0.50;0.50;;;;;;;3.27;41.30;100535.41;5024947;28;20077;-65
2023/03/04 07:02:39;;;;;;;0.50;0.50;;;;;;;3.56;41.19;100537.78;5025089;28;20052;-66
2023/03/04 07:05:05;;;;;;;0.50;0.50;;;;;;;3.92;40.50;100536.84;5024909;28;20116;-66
2023/03/04 07:07:30;;;;;;;0.50;0.50;;;;;;;4.26;40.06;100531.53;5024873;28;20143;-66
2023/03/04 07:09:55;;;;;;;0.40;0.40;;;;;;;4.61;39.37;100533.03;5025146;28;20028;-67
2023/03/04 07:12:21;;;;;;;0.50;0.50;;;;;;;4.77;37.87;100547.03;5023968;28;20029;-64
2023/03/04 07:14:46;;;;;;;0.50;0.50;;;;;;;4.98;38.28;100539.66;5024048;28;20021;-65
2023/03/04 07:17:12;;;;;;;0.50;0.50;;;;;;;5.29;38.04;100545.28;5026732;28;20056;-65
2023/03/04 07:19:37;;;;;;;0.47;0.47;;;;;;;5.63;37.51;100543.25;5024527;28;20060;-65
2023/03/04 07:22:03;;;;;;;0.45;0.45;;;;;;;5.80;36.93;100540.00;5024575;28;20029;-67
2023/03/04 07:24:28;;;;;;;0.40;0.40;;;;;;;5.91;36.91;100548.75;5025376;28;20465;-70
2023/03/04 07:26:54;;;;;;;0.50;0.50;;;;;;;6.14;37.32;100550.81;5024278;28;20094;-66
2023/03/04 07:29:19;;;;;;;1.15;1.15;;;;;;;6.45;35.33;100551.16;5023968;28;20026;-68
2023/03/04 07:31:44;;;;;;;0.45;0.45;;;;;;;6.44;35.51;100546.84;5023475;28;20322;-68
2023/03/04 07:34:12;;;;;;;0.50;0.50;;;;;;;6.31;33.01;100563.88;5025150;28;20029;-68
2023/03/04 07:36:38;;;;;;;0.50;0.50;;;;;;;5.89;32.66;100535.00;5023814;28;20022;-64
2023/03/04 07:39:05;;;;;;;0.50;0.50;;;;;;;5.45;31.47;100556.69;5024774;28;20040;-67
2023/03/04 07:41:34;;;;;;;0.40;0.40;;;;;;;5.02;31.23;100528.56;5023499;28;20095;-65
2023/03/04 07:44:01;;;;;;;0.50;0.50;;;;;;;4.78;31.16;100551.34;5024725;28;20030;-64
2023/03/04 07:46:26;;;;;;;0.40;0.40;;;;;;;4.64;31.20;100542.50;5024686;28;20034;-64
2023/03/04 07:48:53;;;;;;;0.47;0.47;;;;;;;4.64;29.87;100501.38;5024418;28;20022;-65
2023/03/04 07:51:20;;;;;;;0.50;0.50;;;;;;;4.52;30.09;100530.31;5023431;28;20037;-64
2023/03/04 07:53:49;;;;;;;0.50;0.50;;;;;;;4.35;30.21;100561.69;5023907;28;20104;-64
2023/03/04 07:56:18;;;;;;;0.50;0.50;;;;;;;4.35;30.35;100559.13;5024041;28;20022;-65
2023/03/04 07:58:44;;;;;;;0.50;0.50;;;;;;;4.27;29.58;100535.84;5024130;28;20486;-64
2023/03/04 08:01:15;;;;;;;0.50;0.50;;;;;;;4.26;30.43;100567.53;5023810;28;20390;-65
2023/03/04 08:03:41;;;;;;;0.50;0.50;;;;;;;4.39;30.64;100578.94;5023673;28;20022;-64
2023/03/04 08:06:09;;;;;;;0.50;0.50;;;;;;;4.51;30.25;100559.41;5024289;28;20026;-65
2023/03/04 08:08:35;;;;;;;0.50;0.50;;;;;;;4.62;30.20;100573.34;5023782;28;20032;-63
2023/03/04 08:11:07;;;;;;;0.50;0.50;;;;;;;4.58;28.52;100563.84;5023724;28;20108;-64
2023/03/04 08:13:33;;;;;;;0.40;0.40;;;;;;;4.51;27.61;100593.72;5024487;28;20049;-63
2023/03/04 08:15:59;;;;;;;0.40;0.40;;;;;;;4.50;27.52;100561.13;5024303;28;20025;-65
2023/03/04 08:18:25;;;;;;;0.50;0.50;;;;;;;4.58;27.40;100587.00;5023694;28;20021;-64
2023/03/04 08:20:51;;;;;;;0.50;0.50;;;;;;;4.55;27.35;100549.22;5023773;28;20022;-63
2023/03/04 08:23:17;;;;;;;0.50;0.50;;;;;;;4.80;27.87;100592.53;5023604;28;20045;-65
2023/03/04 08:25:43;;;;;;;0.50;0.50;;;;;;;5.17;26.99;100592.31;5023510;28;20029;-63
2023/03/04 08:28:09;;;;;;;0.50;0.50;;;;;;;5.29;26.60;100594.22;5023574;28;20310;-64
2023/03/04 08:30:35;;;;;;;0.50;0.50;;;;;;;5.21;26.63;100610.41;5022865;28;20037;-63
2023/03/04 08:33:02;;;;;;;0.50;0.50;;;;;;;5.38;26.79;100609.84;5023459;28;20120;-66
2023/03/04 08:35:28;;;;;;;0.50;0.50;;;;;;;5.62;26.69;100599.88;5022185;28;20057;-64
2023/03/04 08:37:53;;;;;;;0.50;0.50;;;;;;;5.62;26.69;100611.06;5023521;28;20013;-65
2023/03/04 08:40:18;;;;;;;0.50;0.50;;;;;;;5.62;26.49;100605.91;5023370;28;20017;-62
2023/03/04 08:42:44;;;;;;;0.50;0.50;;;;;;;5.68;26.98;100567.38;5023362;28;20029;-64
2023/03/04 08:45:10;;;;;;;0.40;0.40;;;;;;;5.85;26.53;100607.94;5023370;28;20030;-65
2023/03/04 08:47:36;;;;;;;0.50;0.50;;;;;;;5.72;26.28;100611.19;5023496;28;20425;-66
2023/03/04 08:50:01;;;;;;;0.40;0.40;;;;;;;5.67;26.45;100580.22;5023230;28;20399;-66
2023/03/04 08:52:29;;;;;;;0.43;0.43;;;;;;;5.60;26.40;100607.59;5021692;28;20022;-65
2023/03/04 08:54:55;;;;;;;0.50;0.50;;;;;;;5.61;26.95;100621.34;5023232;28;20532;-62
2023/03/04 08:57:20;;;;;;;0.50;0.50;;;;;;;5.70;26.58;100612.03;5022967;28;20029;-64
2023/03/04 08:59:46;;;;;;;0.40;0.40;;;;;;;5.69;26.75;100622.31;5023085;28;20029;-63
2023/03/04 09:02:11;;;;;;;0.50;0.50;;;;;;;5.75;26.50;100624.97;5023112;28;20029;-65
2023/03/04 09:04:36;;;;;;;0.50;0.50;;;;;;;5.67;26.88;100622.28;5023555;28;20077;-64
2023/03/04 09:07:04;;;;;;;0.50;0.50;;;;;;;5.67;26.53;100635.16;5023254;28;20034;-63
2023/03/04 09:09:30;;;;;;;0.50;0.50;;;;;;;5.80;27.16;100607.00;5023554;28;20026;-63
2023/03/04 09:11:56;;;;;;;0.50;0.50;;;;;;;5.92;26.41;100634.69;5023132;28;20044;-63
2023/03/04 09:14:21;;;;;;;0.40;0.40;;;;;;;5.81;26.21;100616.50;5023062;28;20028;-62
2023/03/04 09:16:46;;;;;;;0.40;0.40;;;;;;;5.74;26.90;100625.81;5023425;28;20057;-63
2023/03/04 09:19:12;;;;;;;0.40;0.40;;;;;;;5.85;26.77;100613.09;5023508;28;20401;-62
2023/03/04 09:21:37;;;;;;;0.50;0.50;;;;;;;5.97;27.04;100625.31;5023155;28;20522;-64
2023/03/04 09:24:03;;;;;;;0.50;0.50;;;;;;;6.34;26.65;100612.06;5023066;28;20525;-62
2023/03/04 09:26:29;;;;;;;0.40;0.40;;;;;;;6.60;26.61;100610.66;5021990;28;20049;-63
2023/03/04 09:28:57;;;;;;;0.40;0.40;;;;;;;6.76;26.46;100597.06;5022806;28;20053;-69
2023/03/04 09:31:26;;;;;;;0.50;0.50;;;;;;;7.15;26.82;100602.59;5023182;28;20026;-70
2023/03/04 09:33:54;;;;;;;0.50;0.50;;;;;;;7.43;26.30;100620.91;5022812;28;20037;-69
2023/03/04 09:36:20;;;;;;;0.50;0.50;;;;;;;7.80;25.78;100624.59;5021558;28;20018;-70
2023/03/04 09:38:46;;;;;;;0.40;0.40;;;;;;;8.04;24.71;100610.09;5022517;28;20034;-67
2023/03/04 09:41:20;;;;;;;0.50;0.50;;;;;;;7.97;24.55;100608.34;5022604;28;20018;-68
2023/03/04 09:43:49;;;;;;;0.40;0.40;;;;;;;7.90;24.12;100603.13;5022475;28;20029;-70
2023/03/04 09:46:26;;;;;;;0.50;0.50;;;;;;;7.98;24.91;100603.19;5022759;28;20029;-68
2023/03/04 09:48:54;;;;;;;0.40;0.40;;;;;;;8.39;24.74;100596.47;5022580;28;20144;-68
2023/03/04 09:51:39;;;;;;;0.50;0.50;;;;;;;8.60;24.29;100606.91;5022800;28;20030;-68
2023/03/04 09:54:13;;;;;;;0.40;0.40;;;;;;;8.96;23.12;100594.06;5022599;28;20053;-70
2023/03/04 09:56:40;;;;;;;0.40;0.40;;;;;;;8.66;22.11;100568.97;5022479;28;20022;-72
2023/03/04 09:59:28;;;;;;;0.50;0.50;;;;;;;8.58;22.49;100601.72;5021439;28;20100;-72
2023/03/04 10:02:00;;;;;;;0.50;0.50;;;;;;;8.41;22.41;100601.66;5022554;28;20025;-69
2023/03/04 10:04:28;;;;;;;0.50;0.50;;;;;;;8.26;22.21;100579.19;5024020;28;20033;-70
2023/03/04 10:06:53;;;;;;;0.50;0.50;;;;;;;8.13;21.98;100586.03;5025950;28;20104;-70
2023/03/04 10:09:27;;;;;;;0.40;0.40;;;;;;;8.13;22.36;100596.38;5025891;28;20053;-69
2023/03/04 10:12:03;;;;;;;0.50;0.50;;;;;;;8.48;21.91;100603.38;5025732;28;20029;-70
2023/03/04 10:14:50;;;;;;;0.50;0.50;;;;;;;8.65;21.59;100580.19;5026136;28;20025;-69
2023/03/04 10:17:35;;;;;;;0.40;0.40;;;;;;;8.82;21.61;100605.22;5024817;28;20021;-67
2023/03/04 10:20:14;;;;;;;0.40;0.40;;;;;;;9.12;21.26;100606.13;5025309;28;20029;-66
2023/03/04 10:22:51;;;;;;;0.40;0.40;;;;;;;9.52;21.04;100613.06;5025513;28;20088;-64
2023/03/04 10:25:21;;;;;;;0.50;0.50;;;;;;;9.74;20.57;100607.00;5025198;28;20028;-64
2023/03/04 10:27:54;;;;;;;0.40;0.40;;;;;;;9.73;20.56;100603.53;5026271;28;20022;-63
2023/03/04 10:30:45;;;;;;;0.50;0.50;;;;;;;9.66;20.07;100586.25;5026328;28;20034;-64
2023/03/04 10:33:13;;;;;;;0.50;0.50;;;;;;;9.21;21.17;100613.06;5019183;28;20105;-63
2023/03/04 10:35:42;;;;;;;0.40;0.40;;;;;;;9.55;21.36;100599.25;5026811;28;20422;-64
2023/03/04 10:38:08;;;;;;;0.40;0.40;;;;;;;9.54;21.20;100610.47;5025200;28;20056;-64
2023/03/04 10:40:40;;;;;;;0.40;0.40;;;;;;;9.86;22.20;100596.59;5026207;28;20022;-65
2023/03/04 10:43:14;;;;;;;0.50;0.50;;;;;;;10.59;22.00;100598.06;5026523;28;20030;-64
2023/03/04 10:45:39;;;;;;;0.40;0.40;;;;;;;11.14;20.30;100589.91;5026401;28;20026;-64
2023/03/04 10:48:05;;;;;;;0.40;0.40;;;;;;;10.81;20.76;100592.75;5026561;28;20022;-65
2023/03/04 10:50:31;;;;;;;0.40;0.40;;;;;;;10.72;19.84;100575.47;5026163;28;20038;-64
2023/03/04 10:52:57;;;;;;;0.40;0.40;;;;;;;10.14;20.54;100567.97;5026203;28;20042;-64
2023/03/04 10:55:40;;;;;;;0.40;0.40;;;;;;;10.54;20.52;100594.66;5024879;28;20482;-64
2023/03/04 10:58:11;;;;;;;0.40;0.40;;;;;;;11.02;21.67;100593.50;5026380;28;20027;-63
2023/03/04 11:00:39;;;;;;;0.40;0.40;;;;;;;11.79;19.79;100585.84;5026616;28;20079;-64
2023/03/04 11:03:27;;;;;;;0.40;0.40;;;;;;;11.24;19.32;100580.31;5026452;28;20022;-64
2023/03/04 11:06:12;;;;;;;0.40;0.40;;;;;;;10.43;19.11;100584.28;5025823;28;20028;-63
2023/03/04 11:08:39;;;;;;;0.40;0.40;;;;;;;10.02;19.83;100557.63;5025480;28;20029;-62
2023/03/04 11:11:24;;;;;;;0.40;0.40;;;;;;;9.67;19.71;100586.25;5025037;28;20471;-63
2023/03/04 11:13:52;;;;;;;0.47;0.47;;;;;;;9.67;20.92;100588.84;5025796;28;20036;-63
2023/03/04 11:16:28;;;;;;;0.40;0.40;;;;;;;10.43;21.75;100580.81;5024246;28;20579;-64
2023/03/04 11:18:59;;;;;;;0.40;0.40;;;;;;;11.12;19.55;100573.47;5025918;28;20030;-63
2023/03/04 11:21:29;;;;;;;0.40;0.40;;;;;;;10.61;19.31;100572.97;5025824;28;20029;-64
2023/03/04 11:24:02;;;;;;;0.40;0.40;;;;;;;10.56;20.46;100576.47;5025843;28;20022;-63
2023/03/04 11:26:35;;;;;;;0.50;0.50;;;;;;;11.37;20.23;100566.31;5025379;28;20356;-63
2023/03/04 11:29:13;;;;;;;0.40;0.40;;;;;;;11.25;18.89;100553.44;5025616;28;20018;-64
2023/03/04 11:31:46;;;;;;;0.40;0.40;;;;;;;10.84;19.72;100576.28;5025500;28;20394;-64